Time,TemperatureF,DewpointF,PressureIn,WindDirection,WindDirectionDegrees,WindSpeedMPH,WindSpeedGustMPH,Humidity,HourlyPrecipIn,Conditions,Clouds,dailyrainin,SolarRadiationWatts/m^2,SoftwareType,DateUTC
2013-01-29 00:04:00,50.0,47.0,-100.00,NE,56,4.0,6.0,89,0.00,,,0.00,0.000000,,2013-01-29 05:04:00,
2013-01-29 00:32:00,48.0,46.0,-100.00,SSE,148,3.0,5.0,92,0.00,,,0.00,0.000000,,2013-01-29 05:32:00,
2013-01-29 00:43:00,48.0,46.0,-100.00,SSE,148,3.0,5.0,92,0.00,,,0.00,0.000000,,2013-01-29 05:43:00,
2013-01-29 00:52:00,48.0,46.0,-100.00,SSE,148,3.0,5.0,92,0.00,,,0.00,0.000000,,2013-01-29 05:52:00,
2013-01-29 01:02:00,48.0,46.0,-100.00,SSE,148,3.0,5.0,92,0.00,,,0.00,0.000000,,2013-01-29 06:02:00,
2013-01-29 01:32:00,47.0,45.0,-100.00,SE,134,4.0,7.0,93,0.00,,,0.00,0.000000,,2013-01-29 06:32:00,
2013-01-29 01:42:00,47.0,45.0,-100.00,SE,134,4.0,7.0,93,0.00,,,0.00,0.000000,,2013-01-29 06:42:00,
2013-01-29 01:52:00,47.0,45.0,-100.00,SE,134,4.0,7.0,93,0.00,,,0.00,0.000000,,2013-01-29 06:52:00,
2013-01-29 02:02:00,47.0,45.0,-100.00,SE,134,4.0,7.0,93,0.00,,,0.00,0.000000,,2013-01-29 07:02:00,
2013-01-29 02:32:00,46.0,44.0,-100.00,East,94,4.0,7.0,92,0.00,,,0.00,0.000000,,2013-01-29 07:32:00,
2013-01-29 02:42:00,46.0,44.0,-100.00,East,94,4.0,7.0,92,0.00,,,0.00,0.000000,,2013-01-29 07:42:00,
2013-01-29 02:52:00,46.0,44.0,-100.00,East,94,4.0,7.0,92,0.00,,,0.00,0.000000,,2013-01-29 07:52:00,
2013-01-29 03:02:00,46.0,44.0,-100.00,East,94,4.0,7.0,92,0.00,,,0.00,0.000000,,2013-01-29 08:02:00,
2013-01-29 03:32:00,45.0,44.0,-100.00,East,100,5.0,10.0,95,0.00,,,0.00,0.000000,,2013-01-29 08:32:00,
2013-01-29 03:42:00,45.0,44.0,-100.00,East,100,5.0,10.0,95,0.00,,,0.00,0.000000,,2013-01-29 08:42:00,
2013-01-29 03:52:00,45.0,44.0,-100.00,East,100,5.0,10.0,95,0.00,,,0.00,0.000000,,2013-01-29 08:52:00,
2013-01-29 04:02:00,45.0,44.0,-100.00,East,100,5.0,10.0,95,0.00,,,0.00,0.000000,,2013-01-29 09:02:00,
2013-01-29 04:32:00,45.0,44.0,-100.00,ENE,67,4.0,7.0,95,0.00,,,0.00,0.000000,,2013-01-29 09:32:00,
2013-01-29 04:42:00,45.0,44.0,-100.00,ENE,67,4.0,7.0,95,0.00,,,0.00,0.000000,,2013-01-29 09:42:00,
2013-01-29 04:52:00,45.0,44.0,-100.00,ENE,67,4.0,7.0,95,0.00,,,0.00,0.000000,,2013-01-29 09:52:00,
2013-01-29 05:02:00,45.0,44.0,-100.00,ENE,67,4.0,7.0,95,0.00,,,0.00,0.000000,,2013-01-29 10:02:00,
2013-01-29 05:32:00,45.0,43.0,-100.00,ENE,73,4.0,7.0,94,0.00,,,0.00,0.000000,,2013-01-29 10:32:00,
2013-01-29 05:42:00,45.0,43.0,-100.00,ENE,73,4.0,7.0,94,0.00,,,0.00,0.000000,,2013-01-29 10:42:00,
2013-01-29 05:52:00,45.0,43.0,-100.00,ENE,73,4.0,7.0,94,0.00,,,0.00,0.000000,,2013-01-29 10:52:00,
2013-01-29 06:02:00,45.0,43.0,-100.00,ENE,73,4.0,7.0,94,0.00,,,0.00,0.000000,,2013-01-29 11:02:00,
2013-01-29 06:32:00,46.0,44.0,-100.00,East,86,3.0,7.0,93,0.00,,,0.00,0.000000,,2013-01-29 11:32:00,
2013-01-29 06:42:00,46.0,44.0,-100.00,East,86,3.0,7.0,93,0.00,,,0.00,0.000000,,2013-01-29 11:42:00,
2013-01-29 06:53:00,46.0,44.0,-100.00,East,86,3.0,7.0,93,0.00,,,0.00,0.000000,,2013-01-29 11:53:00,
2013-01-29 07:03:00,46.0,44.0,-100.00,East,86,3.0,7.0,93,0.00,,,0.00,0.000000,,2013-01-29 12:03:00,
2013-01-29 07:33:00,47.0,45.0,-100.00,ENE,76,4.0,6.0,93,0.00,,,0.00,0.000000,,2013-01-29 12:33:00,
2013-01-29 07:43:00,47.0,45.0,-100.00,ENE,76,4.0,6.0,93,0.00,,,0.00,0.000000,,2013-01-29 12:43:00,
2013-01-29 07:53:00,47.0,45.0,-100.00,ENE,76,4.0,6.0,93,0.00,,,0.00,0.000000,,2013-01-29 12:53:00,
2013-01-29 08:02:00,47.0,45.0,-100.00,ENE,76,4.0,6.0,93,0.00,,,0.00,0.000000,,2013-01-29 13:02:00,
2013-01-29 08:32:00,49.0,46.0,-100.00,ENE,74,4.0,7.0,90,0.00,,,0.00,4.000000,,2013-01-29 13:32:00,
2013-01-29 08:43:00,49.0,46.0,-100.00,ENE,74,4.0,7.0,90,0.00,,,0.00,4.000000,,2013-01-29 13:43:00,
2013-01-29 08:53:00,49.0,46.0,-100.00,ENE,74,4.0,7.0,90,0.00,,,0.00,4.000000,,2013-01-29 13:53:00,
2013-01-29 09:02:00,49.0,46.0,-100.00,ENE,74,4.0,7.0,90,0.00,,,0.00,4.000000,,2013-01-29 14:02:00,
2013-01-29 09:33:00,52.0,49.0,-100.00,East,92,2.0,7.0,89,0.00,,,0.00,54.000000,,2013-01-29 14:33:00,
2013-01-29 09:43:00,52.0,49.0,-100.00,East,92,2.0,7.0,89,0.00,,,0.00,54.000000,,2013-01-29 14:43:00,
2013-01-29 09:53:00,52.0,49.0,-100.00,East,92,2.0,7.0,89,0.00,,,0.00,54.000000,,2013-01-29 14:53:00,
2013-01-29 10:03:00,52.0,49.0,-100.00,East,92,2.0,7.0,89,0.00,,,0.00,54.000000,,2013-01-29 15:03:00,
2013-01-29 10:33:00,55.0,50.0,-100.00,ENE,71,4.0,6.0,82,0.00,,,0.00,109.000000,,2013-01-29 15:33:00,
2013-01-29 10:43:00,55.0,50.0,-100.00,ENE,71,4.0,6.0,82,0.00,,,0.00,109.000000,,2013-01-29 15:43:00,
2013-01-29 10:53:00,55.0,50.0,-100.00,ENE,71,4.0,6.0,82,0.00,,,0.00,109.000000,,2013-01-29 15:53:00,
2013-01-29 11:03:00,55.0,50.0,-100.00,ENE,71,4.0,6.0,82,0.00,,,0.00,109.000000,,2013-01-29 16:03:00,
2013-01-29 11:33:00,62.0,53.0,-100.00,SE,129,2.0,6.0,72,0.00,,,0.00,192.000000,,2013-01-29 16:33:00,
2013-01-29 11:43:00,62.0,53.0,-100.00,SE,129,2.0,6.0,72,0.00,,,0.00,192.000000,,2013-01-29 16:43:00,
2013-01-29 11:53:00,62.0,53.0,-100.00,SE,129,2.0,6.0,72,0.00,,,0.00,192.000000,,2013-01-29 16:53:00,
2013-01-29 12:03:00,62.0,53.0,-100.00,SE,129,2.0,6.0,72,0.00,,,0.00,192.000000,,2013-01-29 17:03:00,
2013-01-29 12:33:00,66.0,54.0,-100.00,SSE,149,4.0,7.0,66,0.00,,,0.00,246.000000,,2013-01-29 17:33:00,
2013-01-29 12:42:00,66.0,54.0,-100.00,SSE,149,4.0,7.0,66,0.00,,,0.00,246.000000,,2013-01-29 17:42:00,
2013-01-29 12:53:00,66.0,54.0,-100.00,SSE,149,4.0,7.0,66,0.00,,,0.00,246.000000,,2013-01-29 17:53:00,
2013-01-29 13:04:00,66.0,54.0,-100.00,SSE,149,4.0,7.0,66,0.00,,,0.00,246.000000,,2013-01-29 18:04:00,
2013-01-29 13:33:00,65.0,54.0,-100.00,WSW,256,4.0,9.0,68,0.00,,,0.00,157.000000,,2013-01-29 18:33:00,
2013-01-29 13:42:00,65.0,54.0,-100.00,WSW,256,4.0,9.0,68,0.00,,,0.00,157.000000,,2013-01-29 18:42:00,
2013-01-29 13:52:00,65.0,54.0,-100.00,WSW,256,4.0,9.0,68,0.00,,,0.00,157.000000,,2013-01-29 18:52:00,
2013-01-29 14:03:00,65.0,54.0,-100.00,WSW,256,4.0,9.0,68,0.00,,,0.00,157.000000,,2013-01-29 19:03:00,
2013-01-29 14:33:00,65.0,54.0,-100.00,South,184,3.0,10.0,67,0.00,,,0.00,147.000000,,2013-01-29 19:33:00,
2013-01-29 14:42:00,65.0,54.0,-100.00,South,184,3.0,10.0,67,0.00,,,0.00,147.000000,,2013-01-29 19:42:00,
2013-01-29 14:52:00,65.0,54.0,-100.00,South,184,3.0,10.0,67,0.00,,,0.00,147.000000,,2013-01-29 19:52:00,
2013-01-29 15:03:00,65.0,54.0,-100.00,South,184,3.0,10.0,67,0.00,,,0.00,147.000000,,2013-01-29 20:03:00,
2013-01-29 15:33:00,65.0,55.0,-100.00,SE,136,4.0,9.0,69,0.00,,,0.00,128.000000,,2013-01-29 20:33:00,
2013-01-29 15:42:00,65.0,55.0,-100.00,SE,136,4.0,9.0,69,0.00,,,0.00,128.000000,,2013-01-29 20:42:00,
2013-01-29 15:53:00,65.0,55.0,-100.00,SE,136,4.0,9.0,69,0.00,,,0.00,128.000000,,2013-01-29 20:53:00,
2013-01-29 16:03:00,65.0,55.0,-100.00,SE,136,4.0,9.0,69,0.00,,,0.00,128.000000,,2013-01-29 21:03:00,
2013-01-29 16:34:00,64.0,55.0,-100.00,South,170,5.0,9.0,72,0.00,,,0.00,138.000000,,2013-01-29 21:34:00,
2013-01-29 16:42:00,64.0,55.0,-100.00,South,170,5.0,9.0,72,0.00,,,0.00,138.000000,,2013-01-29 21:42:00,
2013-01-29 16:53:00,64.0,55.0,-100.00,South,170,5.0,9.0,72,0.00,,,0.00,138.000000,,2013-01-29 21:53:00,
2013-01-29 17:03:00,64.0,55.0,-100.00,South,170,5.0,9.0,72,0.00,,,0.00,138.000000,,2013-01-29 22:03:00,
2013-01-29 17:33:00,64.0,55.0,-100.00,South,182,3.0,10.0,73,0.00,,,0.00,77.000000,,2013-01-29 22:33:00,
2013-01-29 17:43:00,64.0,55.0,-100.00,South,182,3.0,10.0,73,0.00,,,0.00,77.000000,,2013-01-29 22:43:00,
2013-01-29 17:53:00,64.0,55.0,-100.00,South,182,3.0,10.0,73,0.00,,,0.00,77.000000,,2013-01-29 22:53:00,
2013-01-29 18:02:00,64.0,55.0,-100.00,South,182,3.0,10.0,73,0.00,,,0.00,77.000000,,2013-01-29 23:02:00,
2013-01-29 18:33:00,63.0,55.0,-100.00,SSE,150,3.0,7.0,74,0.00,,,0.00,23.000000,,2013-01-29 23:33:00,
2013-01-29 18:42:00,63.0,55.0,-100.00,SSE,150,3.0,7.0,74,0.00,,,0.00,23.000000,,2013-01-29 23:42:00,
2013-01-29 18:53:00,63.0,55.0,-100.00,SSE,150,3.0,7.0,74,0.00,,,0.00,23.000000,,2013-01-29 23:53:00,
2013-01-29 19:03:00,63.0,55.0,-100.00,SSE,150,3.0,7.0,74,0.00,,,0.00,23.000000,,2013-01-30 00:03:00,
2013-01-29 19:33:00,63.0,54.0,-100.00,SSE,154,3.0,8.0,73,0.00,,,0.00,0.000000,,2013-01-30 00:33:00,
2013-01-29 19:43:00,63.0,54.0,-100.00,SSE,154,3.0,8.0,73,0.00,,,0.00,0.000000,,2013-01-30 00:43:00,
2013-01-29 19:53:00,63.0,54.0,-100.00,SSE,154,3.0,8.0,73,0.00,,,0.00,0.000000,,2013-01-30 00:53:00,
2013-01-29 20:02:00,63.0,54.0,-100.00,SSE,154,3.0,8.0,73,0.00,,,0.00,0.000000,,2013-01-30 01:02:00,
2013-01-29 20:32:00,63.0,54.0,-100.00,SE,146,3.0,9.0,73,0.00,,,0.00,0.000000,,2013-01-30 01:32:00,
2013-01-29 20:43:00,63.0,54.0,-100.00,SE,146,3.0,9.0,73,0.00,,,0.00,0.000000,,2013-01-30 01:43:00,
2013-01-29 20:52:00,63.0,54.0,-100.00,SE,146,3.0,9.0,73,0.00,,,0.00,0.000000,,2013-01-30 01:52:00,
2013-01-29 21:02:00,63.0,54.0,-100.00,SE,146,3.0,9.0,73,0.00,,,0.00,0.000000,,2013-01-30 02:02:00,
2013-01-29 21:33:00,64.0,55.0,-100.00,SSE,164,3.0,11.0,73,0.00,,,0.00,0.000000,,2013-01-30 02:33:00,
2013-01-29 21:42:00,64.0,55.0,-100.00,SSE,164,3.0,11.0,73,0.00,,,0.00,0.000000,,2013-01-30 02:42:00,
2013-01-29 21:53:00,64.0,55.0,-100.00,SSE,164,3.0,11.0,73,0.00,,,0.00,0.000000,,2013-01-30 02:53:00,
2013-01-29 22:03:00,64.0,55.0,-100.00,SSE,164,3.0,11.0,73,0.00,,,0.00,0.000000,,2013-01-30 03:03:00,
2013-01-29 22:32:00,63.0,53.0,-100.00,SSW,211,5.0,14.0,71,0.00,,,0.00,0.000000,,2013-01-30 03:32:00,
2013-01-29 22:42:00,63.0,53.0,-100.00,SSW,211,5.0,14.0,71,0.00,,,0.00,0.000000,,2013-01-30 03:42:00,
2013-01-29 22:52:00,63.0,53.0,-100.00,SSW,211,5.0,14.0,71,0.00,,,0.00,0.000000,,2013-01-30 03:52:00,
2013-01-29 23:02:00,63.0,53.0,-100.00,SSW,211,5.0,14.0,71,0.00,,,0.00,0.000000,,2013-01-30 04:02:00,
2013-01-29 23:32:00,62.0,58.0,-100.00,SE,139,4.0,12.0,86,0.02,,,0.02,0.000000,,2013-01-30 04:32:00,
2013-01-29 23:42:00,62.0,58.0,-100.00,SE,139,4.0,12.0,86,0.02,,,0.02,0.000000,,2013-01-30 04:42:00,
2013-01-29 23:52:00,62.0,58.0,-100.00,SE,139,4.0,12.0,86,0.02,,,0.02,0.000000,,2013-01-30 04:52:00,